x

South Hecate Strait (46185) Wave Buoy

11:00am - Fri 27th Mar 2015 All times are PDT. -7 hours from GMT.

  • Sig Wave height 4.3ft
  • Peak Period 11s
  • Wind
    11mph, 13mph gusts
  • Sea Temp 49°f
  • Air Temp 47°f
  • Sea Pressure 1011.9mb
  • South Hecate Strait
  • South Hecate Strait

More Historic Weather Station data

Upgrade to MSW Pro to gain access to the past 30 days of data for over 8000 Wavebouys and Weather Stations around the globe.

Join Pro

Comparision Forecast

View Surf forecast
   
Fri 03/27 11:00am 4.5ft 11s 11 13 mph 1011.9mb 49f 47f
10:00am 4.5ft 12s 11 13 mph 1012.1mb 49f 47f
9:00am 5ft 13s 9 11 mph 1012.6mb 49f 47f
8:00am 5ft 14s 9 11 mph 1012.8mb 49f 47f
7:00am 5.5ft 11s 9 11 mph 1013.5mb 49f 48f
6:00am 6ft 12s 9 11 mph 1013.6mb 49f 48f
5:00am 6ft 12s 9 11 mph 1014.1mb 49f 48f
4:00am 6ft 11s 7 9 mph 1014.7mb 49f 48f
3:00am 6ft 12s 9 13 mph 1015.1mb 49f 48f
2:00am 5ft 11s 9 11 mph 1015.2mb 49f 47f
1:00am 5ft 11s 11 13 mph 1015.1mb 49f 47f
12:00am 5ft 11s 11 13 mph 1014.9mb 49f 47f
Thu 03/26 11:00pm 5ft 12s 11 13 mph 1014.9mb 49f 47f
10:00pm 5ft 12s 9 11 mph 1015.1mb 49f 47f
9:00pm 5ft 12s 9 11 mph 1015.1mb 49f 47f
8:00pm 5ft 12s 9 13 mph 1015.5mb 49f 46f
7:00pm 5ft 12s 13 16 mph 1015.6mb 49f 46f
6:00pm 5.5ft 12s 9 11 mph 1016.5mb 49f 47f
5:00pm 6ft 12s 4 7 mph 1017mb 49f 48f
4:00pm 6ft 11s 7 9 mph 1017.5mb 49f 49f
3:00pm 6ft 10s 7
mph
1018.1mb 49f 49f
2:00pm 6ft 11s 4 7 mph 1017.9mb 49f 49f
1:00pm 6ft 10s 4 7 mph 1018.2mb 49f 49f
12:00pm 6ft 11s 9
mph
1017.8mb 49f 49f
11:00am 6.5ft 10s 9 13 mph 1017.5mb 49f 49f
10:00am 6ft 10s 9 13 mph 1017.1mb 49f 49f
9:00am 6.5ft 11s 9
mph
1016.6mb 49f 49f
8:00am 6.5ft 10s 4 7 mph 1015.7mb 49f 48f
7:00am 7ft 10s 4 7 mph 1015mb 49f 48f
6:00am 6.5ft 9s 7 11 mph 1013.9mb 49f 48f
5:00am 7ft 12s 7 9 mph 1013.8mb 49f 47f
4:00am 7ft 11s 13 20 mph 1013.6mb 49f 48f
3:00am 7ft 11s 2 4 mph 1013.4mb 49f 49f
2:00am 7ft 7s 9 11 mph 1013.4mb 49f 50f
1:00am 8ft 7s 13 18 mph 1013.4mb 49f 50f
12:00am 9ft 8s 11 13 mph 1013.3mb 49f 50f
Wed 03/25 11:00pm 9ft 8s 13 18 mph 1013.6mb 49f 50f
10:00pm 9ft 8s 16 20 mph 1013.3mb 49f 50f
9:00pm 9.5ft 8s 20 25 mph 1012.1mb 49f 50f
8:00pm 9.5ft 9s 20 27 mph 1011.8mb 49f 50f
7:00pm 9ft 8s 22 25 mph 1011mb 49f 50f
6:00pm 10ft 9s 25 29 mph 1010.4mb 49f 51f
5:00pm 9.5ft 9s 27 31 mph 1010.5mb 49f 50f
4:00pm 9.5ft 9s 29 34 mph 1010.2mb 49f 49f
2:00pm 11.5ft 9s 29 36 mph 1010.4mb 49f 49f
1:00pm 13ft 9s 27 34 mph 1010.4mb 49f 50f
12:00pm 14ft 9s 31 40 mph 1008.2mb 49f 49f
11:00am 14.5ft 10s 27 36 mph 1009.4mb 49f 49f
10:00am 14ft 11s 34 40 mph 1008.6mb 49f 49f
9:00am 16ft 10s 34 43 mph 1007.7mb 49f 48f
8:00am 16.5ft 10s 34 43 mph 1006.8mb 49f 48f
7:00am 17ft 10s 31 40 mph 1006.9mb 49f 48f
6:00am 16.5ft 11s 34 40 mph 1006.5mb 49f 48f
5:00am 16.5ft 10s 36 45 mph 1006.2mb 49f 48f
4:00am 15.5ft 10s 36 45 mph 1006mb 49f 47f
3:00am  -   -  38
mph
1006.8mb - 47f
2:00am 13ft 9s 38 47 mph 1007.3mb 49f 47f
1:00am 12.5ft 8s 36 47 mph 1008.3mb 49f 47f
12:00am 12ft 8s 36 45 mph 1009mb 49f 47f
Tue 03/24 11:00pm 10.5ft 7s 38 49 mph 1010mb 50f 47f
10:00pm 10ft 7s 34 43 mph 1011mb 50f 47f
9:00pm 8ft 6s 34 43 mph 1011.7mb 50f 48f
8:00pm 6ft 5s 29 38 mph 1012.7mb 49f 49f
7:00pm 5ft 5s 27 36 mph 1013.1mb 49f 49f
6:00pm 4ft 11s 25 34 mph 1013.6mb 49f 49f
5:00pm 4ft 9s 20 25 mph 1014.9mb 49f 48f
4:00pm 4ft 10s 20 22 mph 1015.8mb 49f 48f
3:00pm 4ft 12s 18 20 mph 1016.5mb 49f 48f
2:00pm 4ft 8s 16 20 mph 1016.7mb 49f 47f
1:00pm 3.5ft 10s 16 18 mph 1016.6mb 49f 44f
12:00pm 3.5ft 12s 16 18 mph 1016.6mb 49f 46f
11:00am 3.5ft 13s 9 11 mph 1016.7mb 49f 48f
10:00am 3.5ft 13s 7 9 mph 1016.7mb 49f 48f
9:00am 3.5ft 12s 4 7 mph 1016.4mb 49f 48f
8:00am 3.5ft 12s 2 4 mph 1016.1mb 49f 49f
7:00am 3.5ft 13s 2 4 mph 1015.7mb 49f 47f
6:00am 4ft 11s 2
mph
1015.6mb 49f 47f
5:00am 4.5ft 12s 2 4 mph 1015.2mb 49f 48f
4:00am 4.5ft 9s 4
mph
1015.1mb 49f 48f
3:00am 4.5ft 11s 7 9 mph 1015.2mb 49f 48f
2:00am 5ft 12s 7 9 mph 1015.1mb 49f 48f
1:00am 4.5ft 12s 4 7 mph 1014.8mb 49f 48f
12:00am 5ft 12s 4 7 mph 1014.8mb 49f 48f
Mon 03/23 11:00pm 5ft 12s 4 7 mph 1014.7mb 49f 48f
10:00pm 4.5ft 12s 4 7 mph 1014.5mb 49f 48f
9:00pm 4.5ft 12s 7
mph
1014.5mb 49f 48f
8:00pm 4.5ft 11s 7 9 mph 1014.1mb 49f 48f